Nearby METAR Reports

 

KBMG - Bloomington, Indiana, USA
Distance from station: SSE 11mi, 18km
Updated: Fri, 14-May-2021 5:53am EDT
Partly cloudy
Partly cloudy
 Wind from calm
Wind: Calm
Temperature: 41°F , 5°C
Dew Point: 36°F , 2°C
Humidity: 81%
Barometer: 30.33 inHg , 1027.1 hPa
Clouds: Partly cloudy
Visibility: 10 miles , 16 km
Cloud details: Partly cloudy 9500 ft
2021/05/14 09:53 KBMG 140953Z AUTO 00000KT 10SM SCT095 05/02 A3033 RMK AO2 SLP270 T00500022
KGPC - Greencastle, Indiana, USA
Distance from station: NNW 24mi, 39km
Updated: Fri, 14-May-2021 5:55am EDT
Mostly cloudy
Mostly cloudy
 Wind from calm
Wind: Calm
Temperature: 43°F , 6°C
Dew Point: 37°F , 3°C
Humidity: 81%
Barometer: 30.34 inHg , 1027.4 hPa
Clouds: Mostly cloudy
Visibility: 10 miles , 16 km
Cloud details: Mostly cloudy 9000 ft
2021/05/14 09:55 KGPC 140955Z AUTO 00000KT 10SM BKN090 06/03 A3034 RMK AO2 T00590033
 
KHUF - Terre Haute, Indiana, USA
Distance from station: WNW 34mi, 54km
Updated: Fri, 14-May-2021 5:53am EDT
Partly cloudy
Partly cloudy
 Wind from calm
Wind: Calm
Temperature: 39°F , 4°C
Dew Point: 37°F , 3°C
Humidity: 93%
Barometer: 30.34 inHg , 1027.4 hPa
Clouds: Partly cloudy
Visibility: 10 miles , 16 km
Cloud details: Partly cloudy 10000 ft
2021/05/14 09:53 KHUF 140953Z 00000KT 10SM SCT100 04/03 A3034 RMK AO2 SLP275 T00390028
KIND - Indianapolis, Indiana, USA
Distance from station: NE 36mi, 58km
Updated: Fri, 14-May-2021 5:54am EDT
Few Clouds
Few Clouds
 Wind from NNW
Wind: NNW 5 mph , 7 km/h
Temperature: 46°F , 8°C
Wind Chill: 44°F , 7°C
Dew Point: 36°F , 2°C
Humidity: 66%
Barometer: 30.33 inHg , 1027.1 hPa
Clouds: Few Clouds
Visibility: 10 miles , 16 km
Cloud details: Few Clouds 9000 ft
2021/05/14 09:54 KIND 140954Z 34004KT 10SM FEW090 08/02 A3033 RMK AO2 SLP270 T00780022
 
KHFY - Indianapolis, Indiana, USA
Distance from station: NE 40mi, 65km
Updated: Thu, 13-May-2021 8:35pm EDT
NOT Current
Mostly cloudy
Mostly cloudy
 Wind from NE
Wind: NE 5 mph , 7 km/h
Temperature: 63°F , 17°C
Dew Point: 32°F , 0°C
Humidity: 32%
Barometer: 30.30 inHg , 1026.1 hPa
Clouds: Mostly cloudy
Visibility: 10 miles , 16 km
Cloud details: Mostly cloudy 10000 ft
2021/05/14 00:35 KHFY 140035Z AUTO 04004KT 10SM BKN100 17/00 A3030 RMK AO2 T01651005
KBAK - Columbus/Balkala, Indiana, USA
Distance from station: E 43mi, 69km
Updated: Thu, 13-May-2021 9:45pm EDT
NOT Current
Partly cloudy
Partly cloudy
 Wind from calm
Wind: Calm
Temperature: 50°F , 10°C
Dew Point: 28°F , -2°C
Humidity: 43%
Barometer: 30.31 inHg , 1026.4 hPa
Clouds: Partly cloudy
Visibility: 10 miles , 16 km
Cloud details: Partly cloudy 10000 ft
2021/05/14 01:45 KBAK 140145Z 00000KT 10SM SCT100 10/M02 A3031 RMK LAST
 
KEYE - Indianapolis, Indiana, USA
Distance from station: NNE 43mi, 69km
Updated: Fri, 14-May-2021 5:53am EDT
Clear
Clear
 Wind from NNW
Wind: NNW 5 mph , 7 km/h
Temperature: 45°F , 7°C
Wind Chill: 42°F , 6°C
Dew Point: 41°F , 5°C
Humidity: 87%
Barometer: 30.33 inHg , 1027.1 hPa
Clouds: Clear
Visibility: 10 miles , 16 km
2021/05/14 09:53 KEYE 140953Z AUTO 33004KT 10SM CLR 07/05 A3033 RMK AO2 SLP268 T00720050 $
KDCY - Daviess County, Indiana, USA
Distance from station: SSW 47mi, 76km
Updated: Fri, 14-May-2021 5:55am EDT
Partly cloudy
Partly cloudy
 Wind from calm
Wind: Calm
Temperature: 43°F , 6°C
Dew Point: 39°F , 4°C
Humidity: 87%
Barometer: 30.33 inHg , 1027.1 hPa
Clouds: Partly cloudy
Visibility: 10 miles , 16 km
Cloud details: Partly cloudy 10000 ft
2021/05/14 09:55 KDCY 140955Z AUTO 00000KT 10SM SCT100 06/04 A3033 RMK AO2 T00600044
 
KCFJ - Crawfordsville, Indiana, USA
Distance from station: NNW 49mi, 78km
Updated: Fri, 14-May-2021 5:55am EDT
Clear
Clear
 Wind from calm
Wind: Calm
Temperature: 37°F , 3°C
Dew Point: 34°F , 1°C
Humidity: 87%
Barometer: 30.34 inHg , 1027.4 hPa
Clouds: Clear
Visibility: 10 miles , 16 km
2021/05/14 09:55 KCFJ 140955Z AUTO 00000KT 10SM CLR 03/01 A3034 RMK AO2 T00310010